createdAt,value
2023-03-05T00:00:08.618Z,42.83
2023-03-05T00:00:35.011Z,42.83
2023-03-05T00:00:56.646Z,42.87
2023-03-05T00:01:20.205Z,42.88
2023-03-05T00:01:42.955Z,43.03
2023-03-05T00:02:06.830Z,42.83
2023-03-05T00:02:28.605Z,43.04
2023-03-05T00:02:50.285Z,42.80
2023-03-05T00:03:13.101Z,42.96
2023-03-05T00:03:34.967Z,43.01
2023-03-05T00:03:57.000Z,42.89
2023-03-05T00:04:18.687Z,42.77
2023-03-05T00:04:41.295Z,42.90
2023-03-05T00:05:02.866Z,42.99
2023-03-05T00:05:24.484Z,42.83
2023-03-05T00:05:46.050Z,42.94
2023-03-05T00:06:08.221Z,42.94
2023-03-05T00:06:33.889Z,42.82
2023-03-05T00:06:55.725Z,42.98
2023-03-05T00:07:17.325Z,42.94
2023-03-05T00:07:38.927Z,42.88
2023-03-05T00:08:00.626Z,43.06
2023-03-05T00:08:23.148Z,43.09
2023-03-05T00:08:44.934Z,42.95
2023-03-05T00:09:06.629Z,42.98
2023-03-05T00:09:28.212Z,42.75
2023-03-05T00:09:50.754Z,42.81
2023-03-05T00:10:12.529Z,42.83
2023-03-05T00:10:34.118Z,42.85
2023-03-05T00:10:57.133Z,42.96
2023-03-05T00:11:20.594Z,42.85
2023-03-05T00:11:42.304Z,42.94
2023-03-05T00:12:04.585Z,42.80
2023-03-05T00:12:26.255Z,42.95
2023-03-05T00:12:48.856Z,42.87
2023-03-05T00:13:10.513Z,42.91
2023-03-05T00:13:33.043Z,42.95
2023-03-05T00:13:54.959Z,42.93
2023-03-05T00:14:17.598Z,42.99
2023-03-05T00:14:39.211Z,43.04
2023-03-05T00:15:00.898Z,43.06
2023-03-05T00:15:22.530Z,42.81
2023-03-05T00:15:44.130Z,42.78
2023-03-05T00:16:09.313Z,42.78
2023-03-05T00:16:31.427Z,42.99
2023-03-05T00:16:53.050Z,42.83
2023-03-05T00:17:14.698Z,43.00
2023-03-05T00:17:37.278Z,43.04
2023-03-05T00:17:59.295Z,42.97
2023-03-05T00:18:21.649Z,43.00
2023-03-05T00:18:43.809Z,42.96
2023-03-05T00:19:06.810Z,42.99
2023-03-05T00:19:28.422Z,42.95
2023-03-05T00:19:50.006Z,42.80
2023-03-05T00:20:13.301Z,42.85
2023-03-05T00:20:35.266Z,42.74
2023-03-05T00:20:56.908Z,42.69
2023-03-05T00:21:20.679Z,42.95
2023-03-05T00:21:43.865Z,42.89
2023-03-05T00:22:06.580Z,42.78
2023-03-05T00:22:28.215Z,42.83
2023-03-05T00:22:50.011Z,42.95
2023-03-05T00:23:11.734Z,42.85
2023-03-05T00:23:34.234Z,42.82
2023-03-05T00:23:57.803Z,42.93
2023-03-05T00:24:19.392Z,42.91
2023-03-05T00:24:42.045Z,42.83
2023-03-05T00:25:04.653Z,42.93
2023-03-05T00:25:26.234Z,42.90
2023-03-05T00:25:48.192Z,42.98
2023-03-05T00:26:09.994Z,42.99
2023-03-05T00:26:35.808Z,43.00
2023-03-05T00:26:57.414Z,42.94
2023-03-05T00:27:19.028Z,42.98
2023-03-05T00:27:40.681Z,43.00
2023-03-05T00:28:03.408Z,43.03
2023-03-05T00:28:25.059Z,43.09
2023-03-05T00:28:49.786Z,43.09
2023-03-05T00:29:15.513Z,43.07
2023-03-05T00:29:39.272Z,42.92
2023-03-05T00:30:00.895Z,42.99
2023-03-05T00:30:22.564Z,43.00
2023-03-05T00:30:45.126Z,43.08
2023-03-05T00:31:06.769Z,43.06
2023-03-05T00:31:31.334Z,42.97
2023-03-05T00:31:53.043Z,43.12
2023-03-05T00:32:15.726Z,43.04
2023-03-05T00:32:37.335Z,43.17
2023-03-05T00:32:58.994Z,43.05
2023-03-05T00:33:20.622Z,43.07
2023-03-05T00:33:42.325Z,43.29
2023-03-05T00:34:08.010Z,43.10
2023-03-05T00:34:29.696Z,43.23
2023-03-05T00:34:51.314Z,42.98
2023-03-05T00:35:13.179Z,43.14
2023-03-05T00:35:39.471Z,43.09
2023-03-05T00:36:07.040Z,42.88
2023-03-05T00:36:29.626Z,42.72
2023-03-05T00:36:52.901Z,43.00
2023-03-05T00:37:14.689Z,42.87
2023-03-05T00:37:37.641Z,42.88
2023-03-05T00:37:59.241Z,42.88
2023-03-05T00:38:20.878Z,42.84
2023-03-05T00:38:42.469Z,42.96
2023-03-05T00:39:04.302Z,43.04
2023-03-05T00:39:27.909Z,43.11
2023-03-05T00:39:49.501Z,43.01
2023-03-05T00:40:12.596Z,43.10
2023-03-05T00:40:38.075Z,42.94
2023-03-05T00:40:59.750Z,43.07
2023-03-05T00:41:22.263Z,43.09
2023-03-05T00:41:45.503Z,43.15
2023-03-05T00:42:07.799Z,43.26
2023-03-05T00:42:29.833Z,42.96
2023-03-05T00:42:51.584Z,43.15
2023-03-05T00:43:14.126Z,43.13
2023-03-05T00:43:35.786Z,43.15
2023-03-05T00:43:57.681Z,43.17
2023-03-05T00:44:19.590Z,43.11
2023-03-05T00:44:42.256Z,43.15
2023-03-05T00:45:04.520Z,43.14
2023-03-05T00:45:26.233Z,43.27
2023-03-05T00:45:47.819Z,43.23
2023-03-05T00:46:09.678Z,43.08
2023-03-05T00:46:32.387Z,43.08
2023-03-05T00:46:54.130Z,43.04
2023-03-05T00:47:18.245Z,42.88
2023-03-05T00:47:39.901Z,42.92
2023-03-05T00:48:02.558Z,42.96
2023-03-05T00:48:25.526Z,42.84
2023-03-05T00:48:47.316Z,42.97
2023-03-05T00:49:10.016Z,42.88
2023-03-05T00:49:31.596Z,42.64
2023-03-05T00:49:53.190Z,42.80
2023-03-05T00:50:14.858Z,42.85
2023-03-05T00:50:37.366Z,42.74
2023-03-05T00:50:59.103Z,42.67
2023-03-05T00:51:20.786Z,42.74
2023-03-05T00:51:42.448Z,42.87
2023-03-05T00:52:06.412Z,43.00
2023-03-05T00:52:28.055Z,43.01
2023-03-05T00:52:49.657Z,43.09
2023-03-05T00:53:11.390Z,43.03
2023-03-05T00:53:33.086Z,43.30
2023-03-05T00:53:56.187Z,43.18
2023-03-05T00:54:17.939Z,43.09
2023-03-05T00:54:39.540Z,42.90
2023-03-05T00:55:01.161Z,42.88
2023-03-05T00:55:23.705Z,43.03
2023-03-05T00:55:45.484Z,42.83
2023-03-05T00:56:07.470Z,42.98
2023-03-05T00:56:29.169Z,42.99
2023-03-05T00:56:51.817Z,43.16
2023-03-05T00:57:13.406Z,43.14
2023-03-05T00:57:34.987Z,43.21
2023-03-05T00:57:56.547Z,43.20
2023-03-05T00:58:19.170Z,43.11
2023-03-05T00:58:40.881Z,43.12
2023-03-05T00:59:02.562Z,43.17
2023-03-05T00:59:25.171Z,43.02
2023-03-05T00:59:47.005Z,42.85
2023-03-05T01:00:10.765Z,43.01
2023-03-05T01:00:32.397Z,43.11
2023-03-05T01:00:57.898Z,42.90
2023-03-05T01:01:20.579Z,42.94
2023-03-05T01:01:42.241Z,43.03
2023-03-05T01:02:03.957Z,42.90
2023-03-05T01:02:26.030Z,43.00
2023-03-05T01:02:47.646Z,42.95
2023-03-05T01:03:10.579Z,42.91
2023-03-05T01:03:34.768Z,42.83
2023-03-05T01:03:57.419Z,42.67
2023-03-05T01:04:19.159Z,42.60
2023-03-05T01:04:40.820Z,42.49
2023-03-05T01:05:03.536Z,42.61
2023-03-05T01:05:25.263Z,42.69
2023-03-05T01:05:47.513Z,42.96
2023-03-05T01:06:11.556Z,43.08
2023-03-05T01:06:34.149Z,43.00
2023-03-05T01:06:56.204Z,43.04
2023-03-05T01:07:19.214Z,42.82
2023-03-05T01:07:41.067Z,42.78
2023-03-05T01:08:04.205Z,42.81
2023-03-05T01:08:26.183Z,43.00
2023-03-05T01:08:48.210Z,43.05
2023-03-05T01:09:09.917Z,42.79
2023-03-05T01:09:32.545Z,42.82
2023-03-05T01:09:54.349Z,42.84
2023-03-05T01:10:16.104Z,42.75
2023-03-05T01:10:37.883Z,43.01
2023-03-05T01:11:00.571Z,42.94
2023-03-05T01:11:22.274Z,42.73
2023-03-05T01:11:43.925Z,42.85
2023-03-05T01:12:06.154Z,42.97
2023-03-05T01:12:27.745Z,42.92
2023-03-05T01:12:50.959Z,43.04
2023-03-05T01:13:12.579Z,43.00
2023-03-05T01:13:34.306Z,42.99
2023-03-05T01:13:56.012Z,42.95
2023-03-05T01:14:19.305Z,42.89
2023-03-05T01:14:40.966Z,42.87
2023-03-05T01:15:02.777Z,42.98
2023-03-05T01:15:25.368Z,42.88
2023-03-05T01:15:47.722Z,43.00
2023-03-05T01:16:10.516Z,42.96
2023-03-05T01:16:32.252Z,42.93
2023-03-05T01:16:54.331Z,42.87
2023-03-05T01:17:15.896Z,42.89
2023-03-05T01:17:37.571Z,42.81
2023-03-05T01:18:00.151Z,42.90
2023-03-05T01:18:21.740Z,42.95
2023-03-05T01:18:43.397Z,42.73
2023-03-05T01:19:06.002Z,43.01
2023-03-05T01:19:27.851Z,42.76
2023-03-05T01:19:49.564Z,42.60
2023-03-05T01:20:13.345Z,42.77
2023-03-05T01:20:36.106Z,42.77
2023-03-05T01:20:57.685Z,42.69
2023-03-05T01:21:19.381Z,42.59
2023-03-05T01:21:41.842Z,42.70
2023-03-05T01:22:04.541Z,42.86
2023-03-05T01:22:27.552Z,42.68
2023-03-05T01:22:49.542Z,42.72
2023-03-05T01:23:11.542Z,42.76
2023-03-05T01:23:35.671Z,42.67
2023-03-05T01:23:58.799Z,42.76
2023-03-05T01:24:20.468Z,42.84
2023-03-05T01:24:42.041Z,42.78
2023-03-05T01:25:04.016Z,42.73
2023-03-05T01:25:25.907Z,42.80
2023-03-05T01:25:55.338Z,42.63
2023-03-05T01:26:17.206Z,42.75
2023-03-05T01:26:39.410Z,42.61
2023-03-05T01:27:01.127Z,42.69
2023-03-05T01:27:24.156Z,42.82
2023-03-05T01:27:46.186Z,42.74
2023-03-05T01:28:08.060Z,42.61
2023-03-05T01:28:29.712Z,42.68
2023-03-05T01:28:52.325Z,42.66
2023-03-05T01:29:13.920Z,42.65
2023-03-05T01:29:37.127Z,42.68
2023-03-05T01:29:58.727Z,42.69
2023-03-05T01:30:20.446Z,42.73
2023-03-05T01:30:43.074Z,42.69
2023-03-05T01:31:07.929Z,42.70
2023-03-05T01:31:29.838Z,42.53
2023-03-05T01:31:51.459Z,42.63
2023-03-05T01:32:14.484Z,42.62
2023-03-05T01:32:36.624Z,42.64
2023-03-05T01:32:58.342Z,42.63
2023-03-05T01:33:20.411Z,42.56
2023-03-05T01:33:43.065Z,42.59
2023-03-05T01:34:04.809Z,42.59
2023-03-05T01:34:26.390Z,42.56
2023-03-05T01:34:48.030Z,42.60
2023-03-05T01:35:16.649Z,42.68
2023-03-05T01:35:39.334Z,42.56
2023-03-05T01:36:00.978Z,42.76
2023-03-05T01:36:24.987Z,42.65
2023-03-05T01:36:46.711Z,42.51
2023-03-05T01:37:09.494Z,42.54
2023-03-05T01:37:32.696Z,42.72
2023-03-05T01:37:54.337Z,42.71
2023-03-05T01:38:16.664Z,42.50
2023-03-05T01:39:08.450Z,42.27
2023-03-05T01:39:30.069Z,42.55
2023-03-05T01:39:51.845Z,42.50
2023-03-05T01:40:17.059Z,42.74
2023-03-05T01:40:40.094Z,42.76
2023-03-05T01:41:01.883Z,42.84
2023-03-05T01:41:23.462Z,42.55
2023-03-05T01:41:46.009Z,42.67
2023-03-05T01:42:07.804Z,42.54
2023-03-05T01:42:29.401Z,42.62
2023-03-05T01:42:58.062Z,42.60
2023-03-05T01:43:25.406Z,42.62
2023-03-05T01:43:47.677Z,42.66
2023-03-05T01:44:21.410Z,42.54
2023-03-05T01:45:03.165Z,42.34
2023-03-05T01:45:24.903Z,42.64
2023-03-05T01:46:28.181Z,42.59
2023-03-05T01:46:50.856Z,42.91
2023-03-05T01:47:12.456Z,42.91
2023-03-05T01:47:34.044Z,43.10
2023-03-05T01:47:55.683Z,43.03
2023-03-05T01:48:18.330Z,42.87
2023-03-05T01:48:42.089Z,42.74
2023-03-05T01:49:14.556Z,42.98
2023-03-05T01:49:41.012Z,43.07
2023-03-05T01:50:04.444Z,43.04
2023-03-05T01:50:27.672Z,42.79
2023-03-05T01:50:49.394Z,42.85
2023-03-05T01:51:11.460Z,43.00
2023-03-05T01:51:38.217Z,43.10
2023-03-05T01:52:06.485Z,42.96
2023-03-05T01:52:32.154Z,42.99
2023-03-05T01:52:59.049Z,42.95
2023-03-05T01:53:20.649Z,43.08
2023-03-05T01:53:42.635Z,42.97
2023-03-05T01:54:08.051Z,43.08
2023-03-05T01:54:33.663Z,43.08
2023-03-05T01:54:59.644Z,42.92
2023-03-05T01:55:24.472Z,43.03
2023-03-05T01:55:46.435Z,42.92
2023-03-05T01:56:09.226Z,42.88
2023-03-05T01:56:31.023Z,42.96
2023-03-05T01:56:55.041Z,43.02
2023-03-05T01:57:20.562Z,43.09
2023-03-05T01:57:44.891Z,42.92
2023-03-05T01:58:10.126Z,42.96
2023-03-05T01:58:32.043Z,43.03
2023-03-05T01:59:03.045Z,43.22
2023-03-05T01:59:26.822Z,42.84
2023-03-05T01:59:51.125Z,42.71
2023-03-05T02:00:17.751Z,42.80
2023-03-05T02:00:43.653Z,42.88
2023-03-05T02:01:05.640Z,42.88
2023-03-05T02:01:27.432Z,42.85
2023-03-05T02:01:52.854Z,42.72
2023-03-05T02:02:14.438Z,42.90
2023-03-05T02:02:36.182Z,42.84
2023-03-05T02:03:01.751Z,42.82
2023-03-05T02:03:25.447Z,42.85
2023-03-05T02:03:49.376Z,42.85
2023-03-05T02:04:16.264Z,42.63
2023-03-05T02:04:43.115Z,42.77
2023-03-05T02:05:09.281Z,42.76
2023-03-05T02:05:33.215Z,42.65
2023-03-05T02:05:55.254Z,42.81
2023-03-05T02:06:17.238Z,42.79
2023-03-05T02:06:41.065Z,42.82
2023-03-05T02:07:04.358Z,42.54
2023-03-05T02:07:26.486Z,42.82
2023-03-05T02:07:48.320Z,42.72
2023-03-05T02:08:14.270Z,42.74
2023-03-05T02:08:36.910Z,42.55
2023-03-05T02:08:59.991Z,42.66
2023-03-05T02:09:23.493Z,42.64
2023-03-05T02:09:45.285Z,42.66
2023-03-05T02:10:16.962Z,42.63
2023-03-05T02:10:40.192Z,42.71
2023-03-05T02:11:02.315Z,42.74
2023-03-05T02:11:24.237Z,42.77
2023-03-05T02:11:47.819Z,42.85
2023-03-05T02:12:11.595Z,42.77
2023-03-05T02:12:33.180Z,42.72
2023-03-05T02:12:58.613Z,42.76
2023-03-05T02:13:23.756Z,42.68
2023-03-05T02:13:45.786Z,42.91
2023-03-05T02:14:10.272Z,42.86
2023-03-05T02:14:32.835Z,42.68
2023-03-05T02:14:59.286Z,42.84
2023-03-05T02:15:21.093Z,42.93
2023-03-05T02:15:42.995Z,42.94
2023-03-05T02:16:05.345Z,42.74
2023-03-05T02:16:35.729Z,42.71
2023-03-05T02:16:58.076Z,42.68
2023-03-05T02:17:19.716Z,42.74
2023-03-05T02:17:41.274Z,42.85
2023-03-05T02:18:03.929Z,42.62
2023-03-05T02:18:25.876Z,42.88
2023-03-05T02:18:47.556Z,43.02
2023-03-05T02:19:11.477Z,42.95
2023-03-05T02:19:48.234Z,43.10
2023-03-05T02:20:13.340Z,43.19
2023-03-05T02:20:45.142Z,43.16
2023-03-05T02:21:09.642Z,43.17
2023-03-05T02:21:37.507Z,43.17
2023-03-05T02:21:59.143Z,43.14
2023-03-05T02:22:22.862Z,43.05
2023-03-05T02:22:45.480Z,42.95
2023-03-05T02:23:07.085Z,43.03
2023-03-05T02:23:32.729Z,42.85
2023-03-05T02:23:54.469Z,42.87
2023-03-05T02:24:20.633Z,43.00
2023-03-05T02:24:42.226Z,43.11
2023-03-05T02:25:13.728Z,42.99
2023-03-05T02:25:35.444Z,43.08
2023-03-05T02:25:58.270Z,43.15
2023-03-05T02:26:19.943Z,43.34
2023-03-05T02:26:43.078Z,43.22
2023-03-05T02:27:05.752Z,43.22
2023-03-05T02:27:34.967Z,43.04
2023-03-05T02:28:01.799Z,43.22
2023-03-05T02:28:28.226Z,43.30
2023-03-05T02:28:54.425Z,43.23
2023-03-05T02:29:20.861Z,43.42
2023-03-05T02:29:45.398Z,43.28
2023-03-05T02:30:08.600Z,43.47
2023-03-05T02:30:31.278Z,43.41
2023-03-05T02:30:53.881Z,43.40
2023-03-05T02:31:18.458Z,43.33
2023-03-05T02:31:40.233Z,43.24
2023-03-05T02:32:02.695Z,43.36
2023-03-05T02:32:25.307Z,43.28
2023-03-05T02:32:47.195Z,43.23
2023-03-05T02:33:09.777Z,43.29
2023-03-05T02:33:31.504Z,43.55
2023-03-05T02:33:56.220Z,43.53
2023-03-05T02:34:18.954Z,43.42
2023-03-05T02:34:40.993Z,43.40
2023-03-05T02:35:04.313Z,43.40
2023-03-05T02:35:26.161Z,43.38
2023-03-05T02:35:48.109Z,43.32
2023-03-05T02:36:12.055Z,43.15
2023-03-05T02:36:33.836Z,43.19
2023-03-05T02:36:56.810Z,43.19
2023-03-05T02:37:19.755Z,43.30
2023-03-05T02:37:41.741Z,43.18
2023-03-05T02:38:03.579Z,43.26
2023-03-05T02:38:26.200Z,43.08
2023-03-05T02:38:48.299Z,43.32
2023-03-05T02:39:10.233Z,43.34
2023-03-05T02:39:32.174Z,43.55
2023-03-05T02:39:53.978Z,43.50
2023-03-05T02:40:17.712Z,43.37
2023-03-05T02:40:39.704Z,43.35
2023-03-05T02:41:01.408Z,43.34
2023-03-05T02:41:24.043Z,43.31
2023-03-05T02:41:45.831Z,43.54
2023-03-05T02:42:08.516Z,43.65
2023-03-05T02:42:33.505Z,43.54
2023-03-05T02:42:55.750Z,43.43
2023-03-05T02:43:17.386Z,43.46
2023-03-05T02:43:40.099Z,43.51
2023-03-05T02:44:01.956Z,43.44
2023-03-05T02:44:23.661Z,43.48
2023-03-05T02:44:45.313Z,43.55
2023-03-05T02:45:08.301Z,43.46
2023-03-05T02:45:30.969Z,43.43
2023-03-05T02:45:52.774Z,43.53
2023-03-05T02:46:15.699Z,43.29
2023-03-05T02:46:37.663Z,43.27
2023-03-05T02:47:01.193Z,43.35
2023-03-05T02:47:22.956Z,43.50
2023-03-05T02:47:44.671Z,43.39
2023-03-05T02:48:06.906Z,43.39
2023-03-05T02:48:29.692Z,43.46
2023-03-05T02:48:51.428Z,43.49
2023-03-05T02:49:13.100Z,43.57
2023-03-05T02:49:34.766Z,43.75
2023-03-05T02:49:57.567Z,43.49
2023-03-05T02:50:20.142Z,43.42
2023-03-05T02:50:42.239Z,43.41
2023-03-05T02:51:06.801Z,43.40
2023-03-05T02:51:30.776Z,43.45
2023-03-05T02:51:53.407Z,43.39
2023-03-05T02:52:15.039Z,43.30
2023-03-05T02:52:36.759Z,43.23
2023-03-05T02:53:00.429Z,43.31
2023-03-05T02:53:24.034Z,43.19
2023-03-05T02:53:46.218Z,43.46
2023-03-05T02:54:08.243Z,43.50
2023-03-05T02:54:31.233Z,43.45
2023-03-05T02:54:53.005Z,43.48
2023-03-05T02:55:14.805Z,43.35
2023-03-05T02:55:37.058Z,43.53
2023-03-05T02:56:00.304Z,43.44
2023-03-05T02:56:23.004Z,43.32
2023-03-05T02:56:44.649Z,43.50
2023-03-05T02:57:06.347Z,43.50
2023-03-05T02:57:27.958Z,43.37
2023-03-05T02:57:51.286Z,43.49
2023-03-05T02:58:12.951Z,43.58
2023-03-05T02:58:34.582Z,43.57
2023-03-05T02:58:56.274Z,43.51
2023-03-05T02:59:18.924Z,43.53
2023-03-05T02:59:40.710Z,43.33
2023-03-05T03:00:03.130Z,43.38
2023-03-05T03:00:25.008Z,43.33
2023-03-05T03:00:46.652Z,43.66
2023-03-05T03:01:09.722Z,43.62
2023-03-05T03:01:31.407Z,43.46
2023-03-05T03:01:53.104Z,43.46
2023-03-05T03:02:14.863Z,43.45
2023-03-05T03:02:37.444Z,43.71
2023-03-05T03:02:59.682Z,43.68
2023-03-05T03:03:22.240Z,43.43
2023-03-05T03:03:43.878Z,43.43
2023-03-05T03:04:06.697Z,43.57
2023-03-05T03:04:28.273Z,43.53
2023-03-05T03:04:49.869Z,43.47
2023-03-05T03:05:11.454Z,43.36
2023-03-05T03:05:33.046Z,43.41
2023-03-05T03:05:55.565Z,43.58
2023-03-05T03:06:17.229Z,43.72
2023-03-05T03:06:40.136Z,43.72
2023-03-05T03:07:01.821Z,43.58
2023-03-05T03:07:24.360Z,43.73
2023-03-05T03:07:46.155Z,43.74
2023-03-05T03:08:07.865Z,43.80
2023-03-05T03:08:29.648Z,43.93
2023-03-05T03:08:52.288Z,44.03
2023-03-05T03:09:13.921Z,44.02
2023-03-05T03:09:35.896Z,43.93
2023-03-05T03:09:57.476Z,43.83
2023-03-05T03:10:19.066Z,43.99
2023-03-05T03:10:41.997Z,43.92
2023-03-05T03:11:05.676Z,44.01
2023-03-05T03:11:27.404Z,43.88
2023-03-05T03:11:48.992Z,44.07
2023-03-05T03:12:12.611Z,43.95
2023-03-05T03:12:37.161Z,43.95
2023-03-05T03:12:58.736Z,43.86
2023-03-05T03:13:20.287Z,43.92
2023-03-05T03:13:44.129Z,44.19
2023-03-05T03:14:05.666Z,43.83
2023-03-05T03:14:27.330Z,43.93
2023-03-05T03:14:48.993Z,44.09
2023-03-05T03:15:12.785Z,43.98
2023-03-05T03:15:35.345Z,43.99
2023-03-05T03:16:02.413Z,43.97
2023-03-05T03:16:24.028Z,44.06
2023-03-05T03:16:46.628Z,43.89
2023-03-05T03:17:09.447Z,43.96
2023-03-05T03:17:31.131Z,44.11
2023-03-05T03:17:52.745Z,43.98
2023-03-05T03:18:15.365Z,44.18
2023-03-05T03:18:37.050Z,43.98
2023-03-05T03:18:58.664Z,43.99
2023-03-05T03:19:20.402Z,43.80
2023-03-05T03:19:44.161Z,43.82
2023-03-05T03:20:08.205Z,43.80
2023-03-05T03:20:29.840Z,43.87
2023-03-05T03:20:51.429Z,43.99
2023-03-05T03:21:19.145Z,44.14
2023-03-05T03:21:42.107Z,43.76
2023-03-05T03:22:04.378Z,43.80
2023-03-05T03:22:26.046Z,43.80
2023-03-05T03:22:49.014Z,43.84
2023-03-05T03:23:10.598Z,43.68
2023-03-05T03:23:32.901Z,43.55
2023-03-05T03:23:54.492Z,43.44
2023-03-05T03:24:17.227Z,43.48
2023-03-05T03:24:39.975Z,43.46
2023-03-05T03:25:02.287Z,43.48
2023-03-05T03:25:24.066Z,43.65
2023-03-05T03:25:47.218Z,43.60
2023-03-05T03:26:09.849Z,43.87
2023-03-05T03:26:31.884Z,43.66
2023-03-05T03:26:53.437Z,43.66
2023-03-05T03:27:15.088Z,43.55
2023-03-05T03:27:36.743Z,43.74
2023-03-05T03:27:59.466Z,43.67
2023-03-05T03:28:21.037Z,43.70
2023-03-05T03:28:43.059Z,43.82
2023-03-05T03:29:04.665Z,43.65
2023-03-05T03:29:27.417Z,44.04
2023-03-05T03:29:49.138Z,43.69
2023-03-05T03:30:11.976Z,43.54
2023-03-05T03:30:33.609Z,43.51
2023-03-05T03:30:56.238Z,43.57
2023-03-05T03:31:17.929Z,43.55
2023-03-05T03:31:41.246Z,43.68
2023-03-05T03:32:04.630Z,43.60
2023-03-05T03:32:26.389Z,43.88
2023-03-05T03:32:48.043Z,43.91
2023-03-05T03:33:10.013Z,43.90
2023-03-05T03:33:32.001Z,43.91
2023-03-05T03:33:54.983Z,44.04
2023-03-05T03:34:17.528Z,43.99
2023-03-05T03:34:39.220Z,43.80
2023-03-05T03:35:01.547Z,43.56
2023-03-05T03:35:24.130Z,43.68
2023-03-05T03:35:46.102Z,43.66
2023-03-05T03:36:08.641Z,43.68
2023-03-05T03:36:30.492Z,43.50
2023-03-05T03:36:54.784Z,43.44
2023-03-05T03:37:16.596Z,43.17
2023-03-05T03:37:38.514Z,43.37
2023-03-05T03:38:00.092Z,43.40
2023-03-05T03:38:22.715Z,43.42
2023-03-05T03:38:44.316Z,43.47
2023-03-05T03:39:05.967Z,43.32
2023-03-05T03:39:27.625Z,43.28
2023-03-05T03:39:49.430Z,43.35
2023-03-05T03:40:12.957Z,43.13
2023-03-05T03:40:35.784Z,43.22
2023-03-05T03:40:57.372Z,43.10
2023-03-05T03:41:19.383Z,43.01
2023-03-05T03:41:43.597Z,43.11
2023-03-05T03:42:05.502Z,42.89
2023-03-05T03:42:27.226Z,43.04
2023-03-05T03:42:50.897Z,42.93
2023-03-05T03:43:13.490Z,43.03
2023-03-05T03:43:35.457Z,42.93
2023-03-05T03:43:56.986Z,43.10
2023-03-05T03:44:20.641Z,43.04
2023-03-05T03:44:43.210Z,42.90
2023-03-05T03:45:05.847Z,43.09
2023-03-05T03:45:27.564Z,43.14
2023-03-05T03:45:49.171Z,43.03
2023-03-05T03:46:11.885Z,42.99
2023-03-05T03:46:33.532Z,42.80
2023-03-05T03:46:55.174Z,42.96
2023-03-05T03:47:17.207Z,42.81
2023-03-05T03:47:38.780Z,42.90
2023-03-05T03:48:01.327Z,42.98
2023-03-05T03:48:23.003Z,43.03
2023-03-05T03:48:44.638Z,43.04
2023-03-05T03:49:08.213Z,43.14
2023-03-05T03:49:30.781Z,42.93
2023-03-05T03:49:54.054Z,42.86
2023-03-05T03:50:15.769Z,42.85
2023-03-05T03:50:38.838Z,42.82
2023-03-05T03:51:04.732Z,42.86
2023-03-05T03:51:27.447Z,42.73
2023-03-05T03:51:50.385Z,42.92
2023-03-05T03:52:13.341Z,42.83
2023-03-05T03:52:34.979Z,42.88
2023-03-05T03:52:56.646Z,42.82
2023-03-05T03:53:19.275Z,42.81
2023-03-05T03:53:40.898Z,42.76
2023-03-05T03:54:02.832Z,42.72
2023-03-05T03:54:24.778Z,42.74
2023-03-05T03:54:47.356Z,42.72
2023-03-05T03:55:10.344Z,42.89
2023-03-05T03:55:31.961Z,42.76
2023-03-05T03:55:59.196Z,42.81
2023-03-05T03:56:20.798Z,42.82
2023-03-05T03:56:42.819Z,42.83
2023-03-05T03:57:04.659Z,42.79
2023-03-05T03:57:26.316Z,42.82
2023-03-05T03:57:48.874Z,42.76
2023-03-05T03:58:10.706Z,42.64
2023-03-05T03:58:32.453Z,42.76
2023-03-05T03:58:54.548Z,42.71
2023-03-05T03:59:17.244Z,42.54
2023-03-05T03:59:38.828Z,42.67
2023-03-05T04:00:01.015Z,42.72
2023-03-05T04:00:23.045Z,42.66
2023-03-05T04:00:44.614Z,42.50
2023-03-05T04:01:06.239Z,42.65
2023-03-05T04:01:28.790Z,42.75
2023-03-05T04:01:50.590Z,42.73
2023-03-05T04:02:12.220Z,42.76
2023-03-05T04:02:33.898Z,42.74
2023-03-05T04:02:56.491Z,42.81
2023-03-05T04:03:18.146Z,42.88
2023-03-05T04:03:39.703Z,42.67
2023-03-05T04:04:01.534Z,42.64
2023-03-05T04:04:23.397Z,42.60
2023-03-05T04:04:46.025Z,42.72
2023-03-05T04:05:08.836Z,42.75
2023-03-05T04:05:30.680Z,42.67
2023-03-05T04:05:52.316Z,42.64
2023-03-05T04:06:15.231Z,42.60
2023-03-05T04:06:36.840Z,42.67
2023-03-05T04:06:59.314Z,42.68
2023-03-05T04:07:22.303Z,42.68
2023-03-05T04:07:45.315Z,42.75
2023-03-05T04:08:11.904Z,42.60
2023-03-05T04:08:33.482Z,42.52
2023-03-05T04:08:56.113Z,42.23
2023-03-05T04:09:17.785Z,42.26
2023-03-05T04:09:39.421Z,42.38
2023-03-05T04:10:00.965Z,42.58
2023-03-05T04:10:23.554Z,42.78
2023-03-05T04:10:45.373Z,42.67
2023-03-05T04:11:07.060Z,42.59
2023-03-05T04:11:28.655Z,42.56
2023-03-05T04:11:50.241Z,42.44
2023-03-05T04:12:17.866Z,42.35
2023-03-05T04:12:39.571Z,42.32
2023-03-05T04:13:01.199Z,42.32
2023-03-05T04:13:24.867Z,42.32
2023-03-05T04:13:47.539Z,42.22
2023-03-05T04:14:09.214Z,42.25
2023-03-05T04:14:30.800Z,42.31
2023-03-05T04:14:52.898Z,42.40
2023-03-05T04:15:15.512Z,42.42
2023-03-05T04:15:37.150Z,42.41
2023-03-05T04:15:59.013Z,42.27
2023-03-05T04:16:20.741Z,42.32
2023-03-05T04:16:42.440Z,42.46
2023-03-05T04:17:05.070Z,42.42
2023-03-05T04:17:26.723Z,42.34
2023-03-05T04:17:48.356Z,42.34
2023-03-05T04:18:11.106Z,42.26
2023-03-05T04:18:34.011Z,42.04
2023-03-05T04:18:55.709Z,42.18
2023-03-05T04:19:17.490Z,42.33
2023-03-05T04:19:39.491Z,42.16
2023-03-05T04:20:02.390Z,42.27
2023-03-05T04:20:24.130Z,42.00
2023-03-05T04:20:45.740Z,42.01
2023-03-05T04:21:07.383Z,42.14
2023-03-05T04:21:30.426Z,42.19
2023-03-05T04:21:52.060Z,41.96
2023-03-05T04:22:15.141Z,42.37
2023-03-05T04:22:38.231Z,42.09
2023-03-05T04:23:00.804Z,42.17
2023-03-05T04:23:22.418Z,42.10
2023-03-05T04:23:44.109Z,42.13
2023-03-05T04:24:08.249Z,42.15
2023-03-05T04:24:29.884Z,42.11
2023-03-05T04:24:52.471Z,42.02
2023-03-05T04:25:14.184Z,41.95
2023-03-05T04:25:35.797Z,42.10
2023-03-05T04:25:57.402Z,42.10
2023-03-05T04:26:20.006Z,42.18
2023-03-05T04:26:41.997Z,42.06
2023-03-05T04:27:03.778Z,42.15
2023-03-05T04:27:25.401Z,42.42
2023-03-05T04:27:47.028Z,42.20
2023-03-05T04:28:09.625Z,42.21
2023-03-05T04:28:31.527Z,42.38
2023-03-05T04:28:53.148Z,42.21
2023-03-05T04:29:14.751Z,41.99
2023-03-05T04:29:37.419Z,42.09
2023-03-05T04:29:59.036Z,42.04
2023-03-05T04:30:20.885Z,41.83
2023-03-05T04:30:42.445Z,41.99
2023-03-05T04:31:05.702Z,41.84
2023-03-05T04:31:27.491Z,41.89
2023-03-05T04:31:49.054Z,42.01
2023-03-05T04:32:10.714Z,42.21
2023-03-05T04:32:33.437Z,42.29
2023-03-05T04:32:55.108Z,42.29
2023-03-05T04:33:16.756Z,42.34
2023-03-05T04:33:38.371Z,42.42
2023-03-05T04:34:01.191Z,42.59
2023-03-05T04:34:22.808Z,42.70
2023-03-05T04:34:44.429Z,42.41
2023-03-05T04:35:06.369Z,42.37
2023-03-05T04:35:29.100Z,42.49
2023-03-05T04:35:51.359Z,42.48
2023-03-05T04:36:13.061Z,42.55
2023-03-05T04:36:34.768Z,42.51
2023-03-05T04:36:57.354Z,42.63
2023-03-05T04:37:18.956Z,42.61
2023-03-05T04:37:41.960Z,42.62
2023-03-05T04:38:05.077Z,42.70
2023-03-05T04:38:26.854Z,42.78
2023-03-05T04:38:48.506Z,42.94
2023-03-05T04:39:10.115Z,42.69
2023-03-05T04:39:32.934Z,42.71
2023-03-05T04:39:54.717Z,42.78
2023-03-05T04:40:16.628Z,42.73
2023-03-05T04:40:38.669Z,42.67
2023-03-05T04:41:01.239Z,42.74
2023-03-05T04:41:22.817Z,42.61
2023-03-05T04:41:44.432Z,42.68
2023-03-05T04:42:06.915Z,42.85
2023-03-05T04:42:29.462Z,42.93
2023-03-05T04:42:51.083Z,42.75
2023-03-05T04:43:12.846Z,42.86
2023-03-05T04:43:34.453Z,42.80
2023-03-05T04:43:57.079Z,42.75
2023-03-05T04:44:19.150Z,42.64
2023-03-05T04:44:40.777Z,42.85
2023-03-05T04:45:02.617Z,42.76
2023-03-05T04:45:25.209Z,42.65
2023-03-05T04:45:46.861Z,42.70
2023-03-05T04:46:08.477Z,42.62
2023-03-05T04:46:30.272Z,42.58
2023-03-05T04:46:52.952Z,42.56
2023-03-05T04:47:14.870Z,42.63
2023-03-05T04:47:37.194Z,42.65
2023-03-05T04:47:59.027Z,42.72
2023-03-05T04:48:21.645Z,42.84
2023-03-05T04:48:43.261Z,42.91
2023-03-05T04:49:04.836Z,42.92
2023-03-05T04:49:26.491Z,42.84
2023-03-05T04:49:49.089Z,42.66
2023-03-05T04:50:11.649Z,42.69
2023-03-05T04:50:33.322Z,42.75
2023-03-05T04:50:54.972Z,42.79
2023-03-05T04:51:16.578Z,42.76
2023-03-05T04:51:39.141Z,42.71
2023-03-05T04:52:00.807Z,42.82
2023-03-05T04:52:22.658Z,42.76
2023-03-05T04:52:45.893Z,42.70